Aeroporto :
LOGIN :

Iscrizione | Disclaimer

   EN    FR    IT 

 










Sommario :    VFR   VFR Marginale   IFR   IFR Intensivo   IFR Molto Intensivo
Visibilità : 
Base nubi : 
>= 8 km
>= 3000ft
5 / 8 km
1000 / 3000 ft
1500m / 5 km
500 / 1000 ft
800 / 1500m
200 / 500 ft
< 800m
< 200 ft
Simboli :   Temporali  Nebbia  Neve Forte  Precipitazioni Forti  Vento > 20 kt
SIGMETs :   Varie  Temporali  Ghiacco  Turbolenza  Onda orograficha  Ceneri Vulcaniche







- Altitudine del aeroporto : 375 ft
- Codice IATA : MST


EHBK - Maastricht Aachen

ULTIMO METAR :
  • 210955Z AUTO 22013KT 9999 NSC 14/12 Q1008 BECMG 24020G30KT

METARs OBSOLETI :
  • 210925Z AUTO 22012KT 190V250 9999 -RA FEW031 13/12 Q1008 RERA REDZ BECMG 24020G30KT
  • 210855Z AUTO 23013KT 200V270 9999 FEW003 SCT013 OVC040 13/12 Q1007 RERA REDZ BECMG 24020G30KT
  • 210825Z AUTO 25009KT 210V310 9000 -SHRA FEW010 SCT015CB OVC035 13/12 Q1007 RERA BECMG 24020G30KT BKN020
  • 210755Z AUTO 23021KT 5000 SHRA SCT015CB SCT021 OVC024 16/15 Q1005 RERA REDZ BECMG 9999 NSW TEMPO 4000
  • 210725Z AUTO 22020G30KT 9999 -RA FEW032 20/13 Q1004 RERA REDZ BECMG 25020G30KT

TAF TAF EHBK
Valido dal 21 a 06 ore il 22 a 12 ore UTC


210456Z 2106/2212 20020G30KT CAVOK
TEMPO 2106/2110 24024G36KT 6000 RA SCT025 BKN030
BECMG 2107/2110 26020G30KT
BECMG 2116/2119 23018G28KT
PROB30
TEMPO 2121/2206 6000 SHRA SCT025CB
BECMG 2200/2203 23012KT
Nessun NOTAM noto per questo aeroporto.
1 SIGMET conosciuto per la FIR Amsterdam (EHAA) :
 
Turbolenza severa
EHAA SIGMET 2 VALID 210857/211100 EHDB
EHAA AMSTERDAM FIR SEV TURB FCST N OF LINE N5456 E00256 - N5501 E00502 SFC/FL060 MOV NE 15KT NC=



MetMap, La meteo Aeronautica in un colpo d'occhio ! - Copyright ORBIFLY Dicembre 2007 - Disclaimer

ORBIFLY MET'MAP TEAM :

Programmazione e sviluppo : Alexandra Zaïnal
Concezione e sviluppo : Baudouin d'Aumeries
Co-Programmazione e sviluppo : Marc-Olivier Méhu
Supporto tecnico e logistico : Manuel Goepfert
Aiuto per la traduzione : Arnaldo La Scala

Contatto : metmap@orbifly.com




FONTI E CREDITI :

   NOAA